Terminal Aerodrome Forecast
Issued by NWS

Home | Current Version | Previous Version | Text Only | Print | Product List | Glossary Off
Versions: 1 2 3 4 5 6 7 8 9 10 11 12 13 14 15 16 17 18 19 20 21 22 23 24 25 26 27 28 29

440
FTUS45 KGGW 121724
TAFGDV
TAF
KGDV 121724Z 1218/1318 10012KT P6SM -SN OVC020
     FM130600 13011KT P6SM VCSH OVC025
     FM130800 13011KT P6SM VCSH OVC045
     FM131500 17010KT P6SM VCSH OVC150
      AMD LTD TO CLD VIS AND WIND=

USA.gov is the U.S. government's official web portal to all federal, state and local government web resources and services.